createdAt,value
2022-10-07T00:01:03.022Z,14.20
2022-10-07T00:03:30.530Z,14.30
2022-10-07T00:06:10.735Z,14.30
2022-10-07T00:08:39.313Z,14.30
2022-10-07T00:11:09.753Z,14.30
2022-10-07T00:13:38.903Z,14.30
2022-10-07T00:16:08.856Z,14.30
2022-10-07T00:18:37.603Z,14.30
2022-10-07T00:21:06.837Z,14.20
2022-10-07T00:23:34.939Z,14.20
2022-10-07T00:26:04.361Z,14.30
2022-10-07T00:28:32.629Z,14.30
2022-10-07T00:31:08.862Z,14.30
2022-10-07T00:33:38.187Z,14.20
2022-10-07T00:36:20.582Z,14.30
2022-10-07T00:39:11.283Z,14.30
2022-10-07T00:41:51.279Z,14.20
2022-10-07T00:44:36.841Z,14.30
2022-10-07T00:47:13.491Z,14.20
2022-10-07T00:50:00.967Z,14.20
2022-10-07T00:52:30.938Z,14.20
2022-10-07T00:55:01.251Z,14.20
2022-10-07T00:57:32.001Z,14.30
2022-10-07T01:00:00.728Z,14.20
2022-10-07T01:02:28.622Z,14.20
2022-10-07T01:04:59.889Z,14.20
2022-10-07T01:07:28.546Z,14.10
2022-10-07T01:09:59.391Z,14.10
2022-10-07T01:12:47.625Z,14.10
2022-10-07T01:15:34.430Z,14.10
2022-10-07T01:18:21.076Z,14.10
2022-10-07T01:21:10.317Z,14.10
2022-10-07T01:23:46.339Z,14.10
2022-10-07T01:26:32.066Z,14.10
2022-10-07T01:29:04.055Z,14.00
2022-10-07T01:31:53.428Z,14.10
2022-10-07T01:34:23.779Z,13.90
2022-10-07T01:36:53.994Z,13.90
2022-10-07T01:39:28.919Z,13.80
2022-10-07T01:41:57.486Z,13.80
2022-10-07T01:44:29.171Z,13.70
2022-10-07T01:46:56.891Z,13.60
2022-10-07T01:49:24.218Z,13.70
2022-10-07T01:52:23.372Z,13.50
2022-10-07T01:55:36.007Z,13.40
2022-10-07T01:58:12.040Z,13.40
2022-10-07T02:00:50.191Z,13.30
2022-10-07T02:03:42.306Z,13.20
2022-10-07T02:06:13.215Z,13.20
2022-10-07T02:08:51.054Z,13.10
2022-10-07T02:11:23.431Z,13.00
2022-10-07T02:14:16.050Z,13.00
2022-10-07T02:16:49.639Z,12.90
2022-10-07T02:19:31.320Z,12.90
2022-10-07T02:22:01.952Z,12.90
2022-10-07T02:24:34.302Z,12.80
2022-10-07T02:27:13.737Z,12.90
2022-10-07T02:29:46.862Z,12.80
2022-10-07T02:32:19.540Z,12.70
2022-10-07T02:34:54.498Z,12.80
2022-10-07T02:37:27.762Z,12.70
2022-10-07T02:39:57.192Z,12.70
2022-10-07T02:42:45.631Z,12.70
2022-10-07T02:45:31.634Z,12.70
2022-10-07T02:48:21.269Z,12.60
2022-10-07T02:50:55.175Z,12.60
2022-10-07T02:53:26.280Z,12.50
2022-10-07T02:55:56.688Z,12.50
2022-10-07T02:58:26.447Z,12.50
2022-10-07T03:00:59.673Z,12.40
2022-10-07T03:03:28.220Z,12.30
2022-10-07T03:05:59.935Z,12.30
2022-10-07T03:08:28.131Z,12.20
2022-10-07T03:10:56.546Z,12.20
2022-10-07T03:13:24.804Z,12.20
2022-10-07T03:15:56.329Z,12.20
2022-10-07T03:18:27.266Z,12.10
2022-10-07T03:21:08.658Z,12.10
2022-10-07T03:23:36.377Z,12.10
2022-10-07T03:26:03.856Z,12.10
2022-10-07T03:28:35.946Z,11.90
2022-10-07T03:31:08.172Z,11.90
2022-10-07T03:33:37.644Z,11.80
2022-10-07T03:36:08.338Z,11.70
2022-10-07T03:38:36.952Z,11.70
2022-10-07T03:41:04.740Z,11.60
2022-10-07T03:43:33.618Z,11.60
2022-10-07T03:46:02.512Z,11.60
2022-10-07T03:48:32.119Z,11.50
2022-10-07T03:50:59.651Z,11.50
2022-10-07T03:53:30.170Z,11.40
2022-10-07T03:55:59.969Z,11.40
2022-10-07T03:58:29.324Z,11.40
2022-10-07T04:01:08.376Z,11.40
2022-10-07T04:03:37.628Z,11.30
2022-10-07T04:06:05.379Z,11.30
2022-10-07T04:08:35.058Z,11.30
2022-10-07T04:11:04.503Z,11.20
2022-10-07T04:13:33.951Z,11.20
2022-10-07T04:16:08.637Z,11.10
2022-10-07T04:18:36.587Z,11.10
2022-10-07T04:21:03.819Z,11.00
2022-10-07T04:23:33.479Z,11.00
2022-10-07T04:26:00.845Z,11.00
2022-10-07T04:28:28.905Z,10.90
2022-10-07T04:31:07.123Z,10.90
2022-10-07T04:33:41.814Z,10.80
2022-10-07T04:36:12.760Z,10.80
2022-10-07T04:39:00.081Z,10.80
2022-10-07T04:41:31.633Z,10.70
2022-10-07T04:43:58.899Z,10.70
2022-10-07T04:46:30.384Z,10.70
2022-10-07T04:49:03.726Z,10.70
2022-10-07T04:51:31.184Z,10.60
2022-10-07T04:54:00.032Z,10.60
2022-10-07T04:56:36.407Z,10.50
2022-10-07T04:59:06.779Z,10.50
2022-10-07T05:01:36.007Z,10.60
2022-10-07T05:04:03.629Z,10.60
2022-10-07T05:06:33.414Z,10.60
2022-10-07T05:09:00.730Z,10.60
2022-10-07T05:11:28.905Z,10.70
2022-10-07T05:14:02.085Z,10.70
2022-10-07T05:16:30.879Z,10.80
2022-10-07T05:18:58.874Z,10.80
2022-10-07T05:21:26.035Z,10.80
2022-10-07T05:23:53.344Z,10.90
2022-10-07T05:26:25.763Z,11.00
2022-10-07T05:28:57.615Z,11.00
2022-10-07T05:31:32.321Z,11.00
2022-10-07T05:34:02.860Z,11.10
2022-10-07T05:36:30.406Z,11.10
2022-10-07T05:39:00.075Z,11.00
2022-10-07T05:41:44.902Z,11.20
2022-10-07T05:44:13.936Z,11.20
2022-10-07T05:46:42.000Z,11.40
2022-10-07T05:49:09.546Z,11.40
2022-10-07T05:51:37.284Z,11.40
2022-10-07T05:54:05.224Z,11.50
2022-10-07T05:56:37.340Z,11.50
2022-10-07T05:59:04.965Z,11.50
2022-10-07T06:01:32.522Z,11.50
2022-10-07T06:04:05.563Z,11.60
2022-10-07T06:06:35.900Z,11.60
2022-10-07T06:09:26.237Z,11.70
2022-10-07T06:12:12.681Z,11.70
2022-10-07T06:14:41.898Z,11.80
2022-10-07T06:17:09.457Z,11.80
2022-10-07T06:19:37.987Z,11.80
2022-10-07T06:22:05.595Z,11.80
2022-10-07T06:24:35.196Z,11.80
2022-10-07T06:27:02.878Z,11.90
2022-10-07T06:29:30.806Z,12.00
2022-10-07T06:31:58.638Z,12.00
2022-10-07T06:34:26.670Z,12.00
2022-10-07T06:36:54.831Z,12.20
2022-10-07T06:39:22.143Z,12.10
2022-10-07T06:41:52.852Z,12.20
2022-10-07T06:44:46.148Z,12.20
2022-10-07T06:47:17.692Z,12.30
2022-10-07T06:49:46.974Z,12.30
2022-10-07T06:52:14.332Z,12.30
2022-10-07T06:54:43.075Z,12.30
2022-10-07T06:57:40.360Z,12.40
2022-10-07T07:00:01.029Z,12.50
2022-10-07T07:02:29.678Z,12.50
2022-10-07T07:04:58.273Z,12.60
2022-10-07T07:07:27.220Z,12.60
2022-10-07T07:09:54.908Z,12.50
2022-10-07T07:12:25.295Z,12.70
2022-10-07T07:14:53.945Z,12.80
2022-10-07T07:17:22.095Z,12.90
2022-10-07T07:19:49.292Z,12.90
2022-10-07T07:22:17.493Z,13.00
2022-10-07T07:24:44.656Z,13.00
2022-10-07T07:27:15.036Z,13.20
2022-10-07T07:29:43.663Z,13.20
2022-10-07T07:32:11.888Z,13.20
2022-10-07T07:34:42.307Z,13.20
2022-10-07T07:37:14.231Z,13.30
2022-10-07T07:39:46.582Z,13.40
2022-10-07T07:42:18.323Z,13.40
2022-10-07T07:44:45.530Z,13.50
2022-10-07T07:47:16.971Z,13.50
2022-10-07T07:49:45.985Z,13.50
2022-10-07T07:52:19.241Z,13.50
2022-10-07T07:54:48.528Z,13.60
2022-10-07T07:57:15.830Z,13.60
2022-10-07T07:59:43.097Z,13.70
2022-10-07T08:02:14.875Z,13.80
2022-10-07T08:04:46.191Z,13.80
2022-10-07T08:07:13.525Z,14.00
2022-10-07T08:09:43.905Z,13.90
2022-10-07T08:12:11.848Z,13.90
2022-10-07T08:14:39.915Z,14.00
2022-10-07T08:17:07.208Z,14.10
2022-10-07T08:19:35.046Z,14.00
2022-10-07T08:22:07.029Z,14.10
2022-10-07T08:24:35.026Z,14.10
2022-10-07T08:27:02.241Z,14.20
2022-10-07T08:29:30.202Z,14.20
2022-10-07T08:31:57.610Z,14.30
2022-10-07T08:34:24.869Z,14.30
2022-10-07T08:36:52.175Z,14.40
2022-10-07T08:39:19.315Z,14.50
2022-10-07T08:41:55.763Z,14.40
2022-10-07T08:44:32.291Z,14.40
2022-10-07T08:47:02.655Z,14.40
2022-10-07T08:49:39.656Z,14.40
2022-10-07T08:52:32.776Z,14.40
2022-10-07T08:55:01.465Z,14.40
2022-10-07T08:57:47.140Z,14.40
2022-10-07T09:00:18.606Z,14.40
2022-10-07T09:02:54.941Z,14.50
2022-10-07T09:05:24.239Z,14.40
2022-10-07T09:08:00.696Z,14.50
2022-10-07T09:10:49.570Z,14.60
2022-10-07T09:13:26.160Z,14.70
2022-10-07T09:16:13.005Z,14.70
2022-10-07T09:18:47.777Z,14.80
2022-10-07T09:21:28.993Z,14.70
2022-10-07T09:24:02.140Z,14.80
2022-10-07T09:26:31.131Z,14.90
2022-10-07T09:28:59.124Z,14.90
2022-10-07T09:31:26.402Z,15.00
2022-10-07T09:33:54.231Z,15.10
2022-10-07T09:36:21.492Z,15.10
2022-10-07T09:38:52.324Z,15.10
2022-10-07T09:41:32.117Z,15.00
2022-10-07T09:44:21.232Z,15.10
2022-10-07T09:46:59.296Z,15.10
2022-10-07T09:49:31.949Z,15.30
2022-10-07T09:52:01.998Z,15.30
2022-10-07T09:54:31.386Z,15.40
2022-10-07T09:57:01.552Z,15.40
2022-10-07T09:59:33.645Z,15.40
2022-10-07T10:02:22.853Z,15.50
2022-10-07T10:04:55.427Z,15.60
2022-10-07T10:07:30.436Z,15.70
2022-10-07T10:10:03.411Z,15.60
2022-10-07T10:12:45.029Z,15.70
2022-10-07T10:15:42.036Z,15.80
2022-10-07T10:18:35.672Z,15.80
2022-10-07T10:21:23.048Z,15.90
2022-10-07T10:24:11.802Z,15.90
2022-10-07T10:27:01.432Z,16.10
2022-10-07T10:30:02.818Z,16.20
2022-10-07T10:32:36.714Z,16.20
2022-10-07T10:35:22.081Z,16.30
2022-10-07T10:37:57.907Z,16.40
2022-10-07T10:40:35.244Z,16.50
2022-10-07T10:43:20.131Z,16.50
2022-10-07T10:46:11.748Z,16.60
2022-10-07T10:48:59.932Z,16.70
2022-10-07T10:51:53.112Z,16.70
2022-10-07T10:54:47.953Z,16.90
2022-10-07T10:57:35.746Z,17.00
2022-10-07T11:00:12.892Z,17.20
2022-10-07T11:02:40.641Z,17.20
2022-10-07T11:05:20.436Z,17.20
2022-10-07T11:07:54.095Z,17.10
2022-10-07T11:10:25.473Z,17.10
2022-10-07T11:12:58.195Z,17.10
2022-10-07T11:15:41.258Z,17.00
2022-10-07T11:18:17.226Z,16.80
2022-10-07T11:20:48.113Z,16.80
2022-10-07T11:23:37.808Z,16.80
2022-10-07T11:26:16.907Z,16.80
2022-10-07T11:28:46.417Z,16.90
2022-10-07T11:31:37.612Z,16.90
2022-10-07T11:34:15.322Z,16.90
2022-10-07T11:37:11.148Z,17.00
2022-10-07T11:39:39.197Z,17.10
2022-10-07T11:42:21.828Z,17.10
2022-10-07T11:45:04.338Z,17.20
2022-10-07T11:47:46.391Z,17.30
2022-10-07T11:50:37.052Z,17.30
2022-10-07T11:53:08.360Z,17.40
2022-10-07T11:55:44.249Z,17.40
2022-10-07T11:58:25.652Z,17.50
2022-10-07T12:01:31.133Z,17.50
2022-10-07T12:04:16.202Z,17.40
2022-10-07T12:07:21.093Z,17.50
2022-10-07T12:09:54.538Z,17.50
2022-10-07T12:12:24.907Z,17.70
2022-10-07T12:15:01.800Z,17.80
2022-10-07T12:17:30.307Z,17.80
2022-10-07T12:20:48.242Z,17.90
2022-10-07T12:23:18.742Z,17.90
2022-10-07T12:25:49.871Z,18.00
2022-10-07T12:28:48.477Z,18.00
2022-10-07T12:31:15.679Z,18.00
2022-10-07T12:33:46.149Z,18.00
2022-10-07T12:36:22.316Z,18.00
2022-10-07T12:38:59.220Z,18.20
2022-10-07T12:41:26.359Z,18.40
2022-10-07T12:44:15.099Z,18.40
2022-10-07T12:47:00.846Z,18.50
2022-10-07T12:49:28.060Z,18.60
2022-10-07T12:51:58.900Z,18.70
2022-10-07T12:54:47.609Z,18.60
2022-10-07T12:57:21.351Z,18.80
2022-10-07T13:00:12.115Z,18.90
2022-10-07T13:02:58.168Z,19.10
2022-10-07T13:05:37.312Z,19.10
2022-10-07T13:08:38.769Z,18.90
2022-10-07T13:11:11.829Z,18.80
2022-10-07T13:13:56.774Z,18.80
2022-10-07T13:16:49.049Z,18.80
2022-10-07T13:19:19.330Z,18.80
2022-10-07T13:21:54.872Z,18.70
2022-10-07T13:24:25.852Z,18.70
2022-10-07T13:26:53.182Z,18.60
2022-10-07T13:29:27.218Z,18.40
2022-10-07T13:32:05.177Z,18.30
2022-10-07T13:34:33.505Z,18.20
2022-10-07T13:37:01.100Z,18.20
2022-10-07T13:39:30.247Z,18.20
2022-10-07T13:41:59.255Z,18.20
2022-10-07T13:44:29.835Z,18.10
2022-10-07T13:47:06.288Z,18.00
2022-10-07T13:49:38.292Z,18.00
2022-10-07T13:52:13.423Z,18.00
2022-10-07T13:54:40.539Z,17.90
2022-10-07T13:57:13.017Z,17.80
2022-10-07T13:59:41.867Z,17.90
2022-10-07T14:02:15.402Z,17.90
2022-10-07T14:05:03.634Z,17.90
2022-10-07T14:07:31.199Z,17.90
2022-10-07T14:09:58.319Z,17.80
2022-10-07T14:12:41.850Z,17.80
2022-10-07T14:15:18.261Z,17.80
2022-10-07T14:17:49.487Z,17.80
2022-10-07T14:20:31.722Z,17.80
2022-10-07T14:23:01.922Z,17.80
2022-10-07T14:25:31.482Z,17.80
2022-10-07T14:28:07.943Z,17.80
2022-10-07T14:30:57.142Z,17.80
2022-10-07T14:33:49.089Z,17.70
2022-10-07T14:36:19.363Z,17.60
2022-10-07T14:38:51.235Z,17.50
2022-10-07T14:41:22.058Z,17.50
2022-10-07T14:43:51.861Z,17.40
2022-10-07T14:46:22.505Z,17.40
2022-10-07T14:48:51.208Z,17.40
2022-10-07T14:51:21.515Z,17.50
2022-10-07T14:53:52.177Z,17.30
2022-10-07T14:56:29.201Z,17.30
2022-10-07T14:58:56.358Z,17.30
2022-10-07T15:01:25.418Z,17.20
2022-10-07T15:03:52.986Z,17.10
2022-10-07T15:06:20.891Z,17.10
2022-10-07T15:08:49.172Z,17.10
2022-10-07T15:11:18.595Z,17.10
2022-10-07T15:13:47.627Z,17.10
2022-10-07T15:16:35.879Z,17.10
2022-10-07T15:19:03.707Z,17.00
2022-10-07T15:21:30.876Z,16.90
2022-10-07T15:23:58.040Z,16.90
2022-10-07T15:26:25.212Z,16.80
2022-10-07T15:28:55.046Z,16.90
2022-10-07T15:31:24.674Z,16.80
2022-10-07T15:33:56.896Z,16.80
2022-10-07T15:36:25.500Z,16.70
2022-10-07T15:38:52.988Z,16.70
2022-10-07T15:41:40.079Z,16.70
2022-10-07T15:44:18.996Z,16.70
2022-10-07T15:46:47.504Z,16.60
2022-10-07T15:49:19.060Z,16.50
2022-10-07T15:51:46.704Z,16.50
2022-10-07T15:54:13.995Z,16.40
2022-10-07T15:56:42.750Z,16.40
2022-10-07T15:59:10.211Z,16.30
2022-10-07T16:01:37.650Z,16.30
2022-10-07T16:04:05.913Z,16.30
2022-10-07T16:06:35.173Z,16.20
2022-10-07T16:09:03.308Z,16.10
2022-10-07T16:11:33.010Z,16.00
2022-10-07T16:14:01.971Z,15.90
2022-10-07T16:16:32.112Z,15.90
2022-10-07T16:19:00.563Z,15.90
2022-10-07T16:21:33.169Z,15.90
2022-10-07T16:24:18.043Z,15.70
2022-10-07T16:26:46.914Z,15.70
2022-10-07T16:29:35.516Z,15.70
2022-10-07T16:32:03.623Z,15.70
2022-10-07T16:34:31.015Z,15.40
2022-10-07T16:36:58.856Z,15.40
2022-10-07T16:39:26.113Z,15.30
2022-10-07T16:41:53.873Z,15.30
2022-10-07T16:44:21.369Z,15.20
2022-10-07T16:46:49.330Z,15.10
2022-10-07T16:49:17.951Z,15.00
2022-10-07T16:51:45.913Z,15.00
2022-10-07T16:54:16.062Z,14.90
2022-10-07T16:56:47.715Z,14.80
2022-10-07T16:59:22.490Z,14.70
2022-10-07T17:01:55.458Z,14.70
2022-10-07T17:04:24.327Z,14.50
2022-10-07T17:06:51.748Z,14.50
2022-10-07T17:09:19.056Z,14.40
2022-10-07T17:11:46.617Z,14.30
2022-10-07T17:14:16.749Z,14.20
2022-10-07T17:16:49.643Z,14.20
2022-10-07T17:19:23.021Z,14.20
2022-10-07T17:21:51.497Z,14.10
2022-10-07T17:24:20.425Z,14.00
2022-10-07T17:26:48.331Z,14.00
2022-10-07T17:29:20.994Z,13.90
2022-10-07T17:31:50.383Z,13.90
2022-10-07T17:34:20.047Z,13.80
2022-10-07T17:36:48.130Z,13.70
2022-10-07T17:39:15.914Z,13.60
2022-10-07T17:41:43.093Z,13.60
2022-10-07T17:44:12.266Z,13.60
2022-10-07T17:46:40.594Z,13.50
2022-10-07T17:49:13.056Z,13.60
2022-10-07T17:51:42.449Z,13.50
2022-10-07T17:54:11.909Z,13.30
2022-10-07T17:56:39.300Z,13.40
2022-10-07T17:59:06.672Z,13.30
2022-10-07T18:01:34.847Z,13.30
2022-10-07T18:04:07.603Z,13.20
2022-10-07T18:06:37.420Z,13.10
2022-10-07T18:09:06.764Z,13.10
2022-10-07T18:11:53.039Z,13.10
2022-10-07T18:14:38.760Z,13.00
2022-10-07T18:17:07.725Z,13.00
2022-10-07T18:19:35.308Z,12.90
2022-10-07T18:22:02.939Z,12.90
2022-10-07T18:24:30.063Z,12.90
2022-10-07T18:26:59.370Z,12.80
2022-10-07T18:29:31.513Z,12.80
2022-10-07T18:31:59.244Z,12.80
2022-10-07T18:34:26.598Z,12.80
2022-10-07T18:36:56.547Z,12.70
2022-10-07T18:39:27.166Z,12.70
2022-10-07T18:41:54.444Z,12.70
2022-10-07T18:44:22.042Z,12.60
2022-10-07T18:46:49.342Z,12.50
2022-10-07T18:49:16.643Z,12.60
2022-10-07T18:51:45.587Z,12.50
2022-10-07T18:54:13.651Z,12.50
2022-10-07T18:56:41.715Z,12.50
2022-10-07T18:59:12.928Z,12.50
2022-10-07T19:01:40.752Z,12.50
2022-10-07T19:04:08.943Z,12.40
2022-10-07T19:06:42.987Z,12.50
2022-10-07T19:09:14.080Z,12.40
2022-10-07T19:11:41.482Z,12.40
2022-10-07T19:14:08.914Z,12.40
2022-10-07T19:16:48.871Z,12.40
2022-10-07T19:19:21.901Z,12.30
2022-10-07T19:21:52.780Z,12.30
2022-10-07T19:24:21.092Z,12.20
2022-10-07T19:26:50.082Z,12.30
2022-10-07T19:29:18.170Z,12.20
2022-10-07T19:31:50.873Z,12.20
2022-10-07T19:34:20.972Z,12.20
2022-10-07T19:36:49.822Z,12.20
2022-10-07T19:39:21.855Z,12.20
2022-10-07T19:41:50.791Z,12.20
2022-10-07T19:44:18.671Z,12.20
2022-10-07T19:46:50.491Z,12.10
2022-10-07T19:49:17.763Z,12.10
2022-10-07T19:51:45.429Z,12.10
2022-10-07T19:54:13.043Z,12.00
2022-10-07T19:56:41.239Z,12.00
2022-10-07T19:59:11.852Z,12.00
2022-10-07T20:01:41.987Z,12.00
2022-10-07T20:04:13.129Z,11.90
2022-10-07T20:06:40.571Z,11.90
2022-10-07T20:09:10.952Z,11.90
2022-10-07T20:11:38.133Z,11.80
2022-10-07T20:14:06.606Z,11.80
2022-10-07T20:16:34.449Z,11.90
2022-10-07T20:19:07.533Z,11.80
2022-10-07T20:21:37.527Z,11.80
2022-10-07T20:24:06.462Z,11.70
2022-10-07T20:26:36.503Z,11.70
2022-10-07T20:29:05.276Z,11.60
2022-10-07T20:31:35.339Z,11.60
2022-10-07T20:34:03.620Z,11.60
2022-10-07T20:36:33.241Z,11.50
2022-10-07T20:39:40.599Z,11.50
2022-10-07T20:42:22.184Z,11.50
2022-10-07T20:44:50.264Z,11.50
2022-10-07T20:47:18.940Z,11.40
2022-10-07T20:49:48.319Z,11.40
2022-10-07T20:52:17.815Z,11.40
2022-10-07T20:54:46.124Z,11.40
2022-10-07T20:57:18.588Z,11.30
2022-10-07T20:59:45.887Z,11.30
2022-10-07T21:02:15.809Z,11.30
2022-10-07T21:04:43.626Z,11.20
2022-10-07T21:07:10.781Z,11.20
2022-10-07T21:09:38.049Z,11.20
2022-10-07T21:12:07.785Z,11.10
2022-10-07T21:14:36.502Z,11.10
2022-10-07T21:17:05.163Z,11.10
2022-10-07T21:19:34.004Z,10.90
2022-10-07T21:22:02.528Z,10.90
2022-10-07T21:24:30.561Z,10.80
2022-10-07T21:26:57.687Z,10.90
2022-10-07T21:29:24.910Z,11.00
2022-10-07T21:31:53.143Z,10.90
2022-10-07T21:34:20.811Z,10.80
2022-10-07T21:36:52.951Z,10.80
2022-10-07T21:39:21.078Z,10.80
2022-10-07T21:41:49.079Z,10.80
2022-10-07T21:44:16.333Z,10.80
2022-10-07T21:46:45.475Z,10.80
2022-10-07T21:49:14.280Z,10.80
2022-10-07T21:51:41.732Z,10.80
2022-10-07T21:54:15.181Z,10.70
2022-10-07T21:56:45.118Z,10.70
2022-10-07T21:59:13.099Z,10.70
2022-10-07T22:01:40.313Z,10.60
2022-10-07T22:04:08.029Z,10.60
2022-10-07T22:06:54.042Z,10.60
2022-10-07T22:09:21.363Z,10.70
2022-10-07T22:11:50.184Z,10.60
2022-10-07T22:14:18.771Z,10.60
2022-10-07T22:16:48.304Z,10.60
2022-10-07T22:19:17.368Z,10.70
2022-10-07T22:21:45.626Z,10.60
2022-10-07T22:24:13.817Z,10.60
2022-10-07T22:26:44.325Z,10.40
2022-10-07T22:29:13.111Z,10.50
2022-10-07T22:31:40.276Z,10.50
2022-10-07T22:34:07.681Z,10.50
2022-10-07T22:36:36.958Z,10.50
2022-10-07T22:39:04.476Z,10.60
2022-10-07T22:41:32.226Z,10.50
2022-10-07T22:44:00.245Z,10.50
2022-10-07T22:46:28.482Z,10.50
2022-10-07T22:48:58.017Z,10.50
2022-10-07T22:51:29.029Z,10.60
2022-10-07T22:53:57.014Z,10.50
2022-10-07T22:56:27.457Z,10.50
2022-10-07T22:58:59.925Z,10.50
2022-10-07T23:01:31.677Z,10.50
2022-10-07T23:04:03.059Z,10.50
2022-10-07T23:06:33.001Z,10.60
2022-10-07T23:09:01.143Z,10.70
2022-10-07T23:11:29.407Z,10.60
2022-10-07T23:13:57.194Z,10.60
2022-10-07T23:16:27.889Z,10.60
2022-10-07T23:18:55.448Z,10.60
2022-10-07T23:21:25.657Z,10.60
2022-10-07T23:24:00.703Z,10.60
2022-10-07T23:26:33.290Z,10.60
2022-10-07T23:29:01.322Z,10.70
2022-10-07T23:31:31.500Z,10.70
2022-10-07T23:34:00.503Z,10.60
2022-10-07T23:36:28.673Z,10.60
2022-10-07T23:38:57.936Z,10.60
2022-10-07T23:41:29.572Z,10.50
2022-10-07T23:43:59.352Z,10.50
2022-10-07T23:46:27.950Z,10.50
2022-10-07T23:48:56.021Z,10.40
2022-10-07T23:51:25.257Z,10.40
2022-10-07T23:53:52.429Z,10.30
2022-10-07T23:56:19.696Z,10.40
2022-10-07T23:58:47.296Z,10.40
